createdAt,value
2023-03-17T00:04:03.260Z,99349.13
2023-03-17T00:09:12.240Z,99349.94
2023-03-17T00:14:17.032Z,99360.25
2023-03-17T00:19:32.346Z,99359.41
2023-03-17T00:24:35.861Z,99355.72
2023-03-17T00:29:41.348Z,99377.44
2023-03-17T00:34:45.032Z,99379.78
2023-03-17T00:39:49.737Z,99391.84
2023-03-17T00:44:54.571Z,99400.59
2023-03-17T00:49:58.685Z,99397.63
2023-03-17T00:55:02.344Z,99385.47
2023-03-17T01:00:18.103Z,99391.56
2023-03-17T01:05:22.449Z,99397.53
2023-03-17T01:10:28.343Z,99402.63
2023-03-17T01:15:35.563Z,99412.66
2023-03-17T01:20:40.041Z,99414.50
2023-03-17T01:25:44.826Z,99417.16
2023-03-17T01:30:50.142Z,99426.25
2023-03-17T01:35:54.209Z,99434.50
2023-03-17T01:40:57.589Z,99450.81
2023-03-17T01:46:22.187Z,99462.16
2023-03-17T01:51:32.201Z,99448.16
2023-03-17T01:56:36.458Z,99476.75
2023-03-17T02:01:47.571Z,99472.88
2023-03-17T02:06:58.438Z,99478.97
2023-03-17T02:12:04.194Z,99477.69
2023-03-17T02:17:10.036Z,99474.13
2023-03-17T02:22:15.497Z,99492.28
2023-03-17T02:27:21.405Z,99514.78
2023-03-17T02:32:25.466Z,99524.22
2023-03-17T02:37:30.426Z,99523.84
2023-03-17T02:42:34.675Z,99540.78
2023-03-17T02:47:38.126Z,99555.19
2023-03-17T02:52:42.963Z,99565.59
2023-03-17T02:57:46.357Z,99556.41
2023-03-17T03:02:49.843Z,99557.75
2023-03-17T03:07:54.618Z,99550.59
2023-03-17T03:12:57.927Z,99555.75
2023-03-17T03:18:01.404Z,99545.31
2023-03-17T03:23:06.378Z,99549.50
2023-03-17T03:28:10.202Z,99571.72
2023-03-17T03:33:14.569Z,99588.59
2023-03-17T03:38:19.822Z,99594.78
2023-03-17T03:43:24.197Z,99608.56
2023-03-17T03:48:27.719Z,99609.41
2023-03-17T03:53:32.816Z,99624.63
2023-03-17T03:58:36.319Z,99638.31
2023-03-17T04:03:40.526Z,99644.31
2023-03-17T04:08:45.500Z,99651.78
2023-03-17T04:13:48.549Z,99670.69
2023-03-17T04:18:52.261Z,99665.31
2023-03-17T04:23:57.371Z,99671.50
2023-03-17T04:29:00.826Z,99670.91
2023-03-17T04:34:04.266Z,99682.28
2023-03-17T04:39:09.142Z,99701.31
2023-03-17T04:44:12.181Z,99714.16
2023-03-17T04:49:15.545Z,99710.47
2023-03-17T04:54:20.496Z,99714.25
2023-03-17T04:59:23.575Z,99722.25
2023-03-17T05:04:31.644Z,99727.63
2023-03-17T05:09:37.502Z,99737.31
2023-03-17T05:14:41.146Z,99737.31
2023-03-17T05:19:44.698Z,99743.25
2023-03-17T05:24:49.606Z,99747.75
2023-03-17T05:29:52.757Z,99759.16
2023-03-17T05:34:56.287Z,99778.25
2023-03-17T05:40:01.248Z,99782.50
2023-03-17T05:45:05.355Z,99781.44
2023-03-17T05:50:09.973Z,99779.97
2023-03-17T05:55:14.979Z,99800.63
2023-03-17T06:00:19.410Z,99800.22
2023-03-17T06:05:23.015Z,99822.59
2023-03-17T06:10:28.433Z,99829.53
2023-03-17T06:15:32.793Z,99829.56
2023-03-17T06:20:36.830Z,99831.75
2023-03-17T06:25:41.693Z,99840.81
2023-03-17T06:30:44.874Z,99853.59
2023-03-17T06:35:48.559Z,99856.44
2023-03-17T06:40:53.609Z,99859.94
2023-03-17T06:45:57.200Z,99867.13
2023-03-17T06:51:00.548Z,99855.94
2023-03-17T06:56:05.916Z,99863.88
2023-03-17T07:01:09.480Z,99857.03
2023-03-17T07:06:13.421Z,99865.44
2023-03-17T07:11:18.621Z,99876.47
2023-03-17T07:16:22.555Z,99874.19
2023-03-17T07:21:26.066Z,99893.25
2023-03-17T07:26:32.243Z,99891.63
2023-03-17T07:31:38.835Z,99903.34
2023-03-17T07:36:42.807Z,99896.94
2023-03-17T07:41:53.132Z,99895.22
2023-03-17T07:46:56.715Z,99900.44
2023-03-17T07:52:00.097Z,99892.25
2023-03-17T07:57:05.451Z,99904.75
2023-03-17T08:02:09.154Z,99905.69
2023-03-17T08:07:13.280Z,99903.38
2023-03-17T08:12:18.291Z,99901.41
2023-03-17T08:17:21.789Z,99916.13
2023-03-17T08:22:25.475Z,99922.28
2023-03-17T08:27:33.214Z,99928.38
2023-03-17T08:32:37.331Z,99933.53
2023-03-17T08:37:40.902Z,99936.50
2023-03-17T08:42:46.024Z,99938.53
2023-03-17T08:47:49.617Z,99949.25
2023-03-17T08:52:54.516Z,99954.16
2023-03-17T08:57:59.383Z,99954.38
2023-03-17T09:03:03.748Z,99951.22
2023-03-17T09:08:07.847Z,99966.91
2023-03-17T09:13:12.930Z,99979.25
2023-03-17T09:18:16.389Z,99989.09
2023-03-17T09:23:20.238Z,99945.53
2023-03-17T09:28:25.042Z,99993.06
2023-03-17T09:33:28.264Z,99996.38
2023-03-17T09:38:31.992Z,100001.38
2023-03-17T09:43:46.116Z,100009.41
2023-03-17T09:48:59.494Z,100009.03
2023-03-17T09:54:05.350Z,100010.63
2023-03-17T09:59:31.290Z,100025.88
2023-03-17T10:04:34.654Z,100022.19
2023-03-17T10:09:42.902Z,100020.25
2023-03-17T10:14:55.993Z,100025.22
2023-03-17T10:20:02.533Z,100029.41
2023-03-17T10:25:14.933Z,100030.28
2023-03-17T10:30:22.270Z,100036.09
2023-03-17T10:35:26.403Z,100045.09
2023-03-17T10:40:32.268Z,100049.16
2023-03-17T10:45:44.025Z,100044.63
2023-03-17T10:50:49.573Z,100049.56
2023-03-17T10:55:54.616Z,100056.19
2023-03-17T11:01:00.523Z,100059.38
2023-03-17T11:06:06.375Z,100068.66
2023-03-17T11:11:22.929Z,100066.69
2023-03-17T11:16:28.147Z,100074.16
2023-03-17T11:21:34.884Z,100079.53
2023-03-17T11:27:00.782Z,100085.56
2023-03-17T11:32:23.816Z,100089.59
2023-03-17T11:37:44.965Z,100084.91
2023-03-17T11:43:04.381Z,100046.94
2023-03-17T11:48:22.521Z,100092.41
2023-03-17T11:53:46.513Z,100098.00
2023-03-17T11:58:56.702Z,100092.97
2023-03-17T12:04:10.650Z,100101.31
2023-03-17T12:09:26.111Z,100095.28
2023-03-17T12:14:33.198Z,100110.84
2023-03-17T12:19:43.979Z,100115.00
2023-03-17T12:24:54.771Z,100120.03
2023-03-17T12:30:02.121Z,100119.78
2023-03-17T12:35:26.895Z,100121.84
2023-03-17T12:40:36.705Z,100129.56
2023-03-17T12:45:54.206Z,100139.59
2023-03-17T12:51:51.080Z,100143.38
2023-03-17T12:57:03.972Z,100105.34
2023-03-17T13:02:17.900Z,100146.38
2023-03-17T13:07:27.190Z,100141.16
2023-03-17T13:12:57.817Z,100142.53
2023-03-17T13:18:29.240Z,100148.59
2023-03-17T13:23:39.078Z,100161.41
2023-03-17T13:28:48.863Z,100164.94
2023-03-17T13:33:55.563Z,100168.28
2023-03-17T13:39:30.627Z,100170.84
2023-03-17T13:44:48.023Z,100175.50
2023-03-17T13:49:53.040Z,100183.75
2023-03-17T13:55:07.446Z,100191.19
2023-03-17T14:00:24.625Z,100191.69
2023-03-17T14:05:31.292Z,100193.97
2023-03-17T14:10:37.439Z,100199.69
2023-03-17T14:15:49.252Z,100207.25
2023-03-17T14:20:57.364Z,100215.00
2023-03-17T14:26:04.229Z,100212.13
2023-03-17T14:31:09.084Z,100214.69
2023-03-17T14:36:14.682Z,100221.75
2023-03-17T14:41:20.676Z,100219.31
2023-03-17T14:46:28.030Z,100228.59
2023-03-17T14:51:36.104Z,100224.22
2023-03-17T14:56:44.326Z,100230.38
2023-03-17T15:01:49.094Z,100231.53
2023-03-17T15:06:54.844Z,100238.47
2023-03-17T15:12:06.924Z,100245.63
2023-03-17T15:17:19.139Z,100260.69
2023-03-17T15:22:26.139Z,100266.09
2023-03-17T15:27:32.761Z,100269.13
2023-03-17T15:32:36.729Z,100278.81
2023-03-17T15:37:40.162Z,100287.75
2023-03-17T15:42:45.566Z,100296.34
2023-03-17T15:47:49.461Z,100306.13
2023-03-17T15:52:56.009Z,100307.44
2023-03-17T15:58:01.640Z,100317.03
2023-03-17T16:03:15.273Z,100318.84
2023-03-17T16:08:19.206Z,100335.47
2023-03-17T16:13:24.254Z,100347.75
2023-03-17T16:18:31.143Z,100357.50
2023-03-17T16:23:37.412Z,100365.50
2023-03-17T16:28:42.583Z,100373.59
2023-03-17T16:33:45.831Z,100384.22
2023-03-17T16:38:49.784Z,100388.66
2023-03-17T16:43:59.644Z,100390.53
2023-03-17T16:49:04.331Z,100384.97
2023-03-17T16:54:07.973Z,100392.44
2023-03-17T16:59:19.977Z,100405.81
2023-03-17T17:04:24.450Z,100399.13
2023-03-17T17:09:27.915Z,100404.94
2023-03-17T17:14:32.840Z,100410.47
2023-03-17T17:19:36.102Z,100416.56
2023-03-17T17:24:39.667Z,100421.53
2023-03-17T17:29:44.576Z,100420.41
2023-03-17T17:34:47.631Z,100432.13
2023-03-17T17:39:51.895Z,100443.28
2023-03-17T17:44:56.766Z,100448.94
2023-03-17T17:50:00.451Z,100454.56
2023-03-17T17:55:03.952Z,100451.34
2023-03-17T18:00:11.281Z,100460.16
2023-03-17T18:05:14.857Z,100459.81
2023-03-17T18:10:20.070Z,100469.50
2023-03-17T18:15:26.596Z,100482.56
2023-03-17T18:20:30.641Z,100477.69
2023-03-17T18:25:34.393Z,100490.91
2023-03-17T18:30:39.335Z,100485.59
2023-03-17T18:35:42.773Z,100506.94
2023-03-17T18:40:46.688Z,100502.31
2023-03-17T18:45:51.574Z,100512.34
2023-03-17T18:50:54.743Z,100518.19
2023-03-17T18:55:59.565Z,100518.13
2023-03-17T19:01:05.077Z,100523.25
2023-03-17T19:06:09.138Z,100531.19
2023-03-17T19:11:15.595Z,100519.94
2023-03-17T19:16:20.557Z,100538.41
2023-03-17T19:21:24.772Z,100548.09
2023-03-17T19:26:28.715Z,100549.88
2023-03-17T19:31:33.751Z,100551.75
2023-03-17T19:36:38.219Z,100549.78
2023-03-17T19:41:41.896Z,100551.06
2023-03-17T19:46:46.841Z,100556.16
2023-03-17T19:51:50.657Z,100571.94
2023-03-17T19:56:54.178Z,100575.06
2023-03-17T20:01:59.091Z,100569.00
2023-03-17T20:07:02.282Z,100578.66
2023-03-17T20:12:06.785Z,100581.53
2023-03-17T20:17:12.298Z,100580.91
2023-03-17T20:22:16.109Z,100581.53
2023-03-17T20:27:19.869Z,100582.00
2023-03-17T20:32:24.816Z,100587.75
2023-03-17T20:37:28.360Z,100590.69
2023-03-17T20:42:31.881Z,100596.25
2023-03-17T20:47:36.758Z,100593.28
2023-03-17T20:52:41.171Z,100596.78
2023-03-17T20:57:47.773Z,100602.91
2023-03-17T21:02:53.425Z,100600.16
2023-03-17T21:07:57.869Z,100602.19
2023-03-17T21:13:01.498Z,100611.56
2023-03-17T21:18:07.026Z,100619.81
2023-03-17T21:23:11.144Z,100620.25
2023-03-17T21:28:15.656Z,100619.13
2023-03-17T21:33:21.673Z,100613.63
2023-03-17T21:38:25.102Z,100614.47
2023-03-17T21:43:29.087Z,100632.13
2023-03-17T21:48:33.850Z,100638.69
2023-03-17T21:53:37.117Z,100641.78
2023-03-17T21:58:40.736Z,100653.97
2023-03-17T22:03:46.156Z,100667.91
2023-03-17T22:08:50.761Z,100670.47
2023-03-17T22:13:54.307Z,100674.31
2023-03-17T22:18:59.084Z,100679.63
2023-03-17T22:24:02.420Z,100689.69
2023-03-17T22:29:06.835Z,100686.25
2023-03-17T22:34:11.814Z,100697.19
2023-03-17T22:39:15.306Z,100698.28
2023-03-17T22:44:18.641Z,100702.03
2023-03-17T22:49:23.828Z,100702.66
2023-03-17T22:54:27.422Z,100713.63
2023-03-17T22:59:30.961Z,100708.44
2023-03-17T23:04:36.112Z,100717.25
2023-03-17T23:09:41.461Z,100718.56
2023-03-17T23:14:45.253Z,100721.41
2023-03-17T23:19:50.164Z,100735.75
2023-03-17T23:24:54.154Z,100734.44
2023-03-17T23:29:59.332Z,100732.41
2023-03-17T23:35:04.188Z,100739.38
2023-03-17T23:40:09.401Z,100742.56
2023-03-17T23:45:15.620Z,100745.66
2023-03-17T23:50:21.928Z,100751.22
2023-03-17T23:55:25.251Z,100747.44
